Time;durP1;ratioP1;P1;durP2;ratioP2;P2;SDS_P1;SDS_P2;PMS_P1;PMS_P2;Temp;Humidity;BMP_temperature;BMP_pressure;BME280_temperature;BME280_humidity;BME280_pressure;Samples;Min_cycle;Max_cycle;Signal;HPM_P1;HPM_P2
2021/04/13 01:50:39;;;;;;;8.68;6.40;;;2.60;99.90;;;;;;522003;26;20547;-86
2021/04/13 01:53:07;;;;;;;6.93;6.43;;;2.60;99.90;;;;;;5037517;28;20223;-84
2021/04/13 01:55:36;;;;;;;6.47;5.88;;;2.60;99.90;;;;;;5040477;28;20215;-85
2021/04/13 01:58:09;;;;;;;8.48;7.68;;;2.60;99.90;;;;;;5040039;28;20209;-84
2021/04/13 02:00:44;;;;;;;7.45;6.65;;;2.60;99.90;;;;;;5040029;28;20212;-84
2021/04/13 02:03:14;;;;;;;7.38;6.80;;;2.60;99.90;;;;;;5059308;28;20636;-85
2021/04/13 02:05:46;;;;;;;6.53;5.88;;;2.60;99.90;;;;;;5060488;28;20218;-85
2021/04/13 02:08:19;;;;;;;6.90;6.40;;;2.60;99.90;;;;;;5060504;28;20666;-84
2021/04/13 02:10:53;;;;;;;8.88;7.25;;;2.60;99.90;;;;;;5059898;28;20202;-85
2021/04/13 02:13:24;;;;;;;7.30;6.70;;;2.60;99.90;;;;;;5061028;28;20645;-84
2021/04/13 02:15:57;;;;;;;6.75;6.13;;;2.50;99.90;;;;;;5061477;28;20212;-85
2021/04/13 02:18:33;;;;;;;6.00;5.30;;;2.50;99.90;;;;;;5059937;28;20199;-84
2021/04/13 02:21:05;;;;;;;7.68;6.60;;;2.50;99.90;;;;;;5059077;28;20232;-85
2021/04/13 02:23:33;;;;;;;8.77;7.88;;;2.40;99.90;;;;;;5066227;28;20179;-84
2021/04/13 02:26:02;;;;;;;7.22;6.63;;;2.40;99.90;;;;;;5077237;28;20218;-84
2021/04/13 02:28:30;;;;;;;7.15;6.45;;;2.40;99.90;;;;;;5076837;28;20228;-84
2021/04/13 02:30:57;;;;;;;7.68;6.50;;;2.40;99.90;;;;;;5076122;28;20209;-85
2021/04/13 02:33:31;;;;;;;7.53;6.90;;;2.30;99.90;;;;;;5060629;28;20232;-85
2021/04/13 02:35:59;;;;;;;8.52;6.75;;;2.30;99.90;;;;;;5061067;28;20249;-85
2021/04/13 02:38:30;;;;;;;7.65;6.75;;;2.30;99.90;;;;;;5060538;28;20315;-85
2021/04/13 02:41:02;;;;;;;9.07;7.25;;;2.30;99.90;;;;;;5060375;28;20235;-85
2021/04/13 02:43:31;;;;;;;8.43;7.72;;;2.20;99.90;;;;;;5060218;28;20192;-85
2021/04/13 02:46:01;;;;;;;7.55;6.75;;;1.90;99.90;;;;;;5060491;28;20217;-85
2021/04/13 02:48:30;;;;;;;12.07;7.20;;;2.00;99.90;;;;;;5059958;28;20213;-85
2021/04/13 02:51:02;;;;;;;8.80;7.88;;;2.00;99.90;;;;;;5059787;28;20242;-85
2021/04/13 02:53:35;;;;;;;7.55;6.95;;;2.00;99.90;;;;;;5060074;28;20211;-85
2021/04/13 02:56:06;;;;;;;6.68;6.07;;;2.00;99.90;;;;;;5059312;28;20198;-85
2021/04/13 02:58:39;;;;;;;9.30;6.35;;;2.00;99.90;;;;;;5059864;28;20196;-85
2021/04/13 03:01:05;;;;;;;8.00;6.88;;;2.00;99.90;;;;;;5060236;28;20600;-85
2021/04/13 03:03:34;;;;;;;8.10;6.80;;;2.00;99.90;;;;;;5058965;28;20214;-85
2021/04/13 03:06:01;;;;;;;6.72;6.13;;;2.00;99.90;;;;;;5060136;28;20284;-85
2021/04/13 03:08:29;;;;;;;7.53;6.70;;;2.00;99.90;;;;;;5060220;28;20211;-85
2021/04/13 03:11:05;;;;;;;7.45;6.65;;;2.00;99.90;;;;;;5060203;28;20220;-85
2021/04/13 03:13:35;;;;;;;11.18;7.82;;;1.90;99.90;;;;;;5059374;28;20222;-85
2021/04/13 03:16:04;;;;;;;7.20;6.50;;;2.00;99.90;;;;;;5061984;28;20259;-84
2021/04/13 03:18:35;;;;;;;7.85;6.90;;;1.90;99.90;;;;;;5063637;28;20202;-84
2021/04/13 03:21:07;;;;;;;7.18;6.47;;;2.00;99.90;;;;;;5065857;28;20251;-85
2021/04/13 03:23:35;;;;;;;7.35;6.68;;;2.10;99.90;;;;;;5067352;28;20208;-85
2021/04/13 03:26:07;;;;;;;6.65;6.13;;;2.10;99.90;;;;;;5067278;28;20210;-85
2021/04/13 03:28:36;;;;;;;7.95;7.15;;;2.20;99.90;;;;;;5067481;28;20195;-85
2021/04/13 03:31:04;;;;;;;7.78;7.07;;;2.20;99.90;;;;;;5066457;28;20225;-85
2021/04/13 03:33:32;;;;;;;7.00;6.40;;;2.10;99.90;;;;;;5064012;28;20215;-85
2021/04/13 03:36:05;;;;;;;8.88;7.25;;;2.00;99.90;;;;;;5063672;28;20302;-85
2021/04/13 03:38:33;;;;;;;8.20;5.93;;;2.00;99.90;;;;;;5064338;28;20200;-85
2021/04/13 03:41:00;;;;;;;8.60;6.70;;;2.00;99.90;;;;;;5063287;28;20232;-85
2021/04/13 03:43:33;;;;;;;7.93;6.88;;;2.00;99.90;;;;;;5064380;28;20210;-85
2021/04/13 03:46:05;;;;;;;7.63;6.82;;;2.00;99.90;;;;;;5063988;28;20199;-85
2021/04/13 03:48:33;;;;;;;7.25;6.55;;;2.10;99.90;;;;;;5063745;28;20661;-85
2021/04/13 03:51:02;;;;;;;7.10;6.50;;;2.20;99.90;;;;;;5063478;28;20261;-85
2021/04/13 03:53:33;;;;;;;5.80;5.28;;;2.30;99.90;;;;;;5063672;28;20225;-85
2021/04/13 03:56:02;;;;;;;6.15;5.75;;;2.30;99.90;;;;;;5062846;28;20258;-85
2021/04/13 03:58:37;;;;;;;7.85;7.15;;;2.20;99.90;;;;;;5063216;28;20258;-85
2021/04/13 04:01:04;;;;;;;6.90;6.30;;;1.80;99.90;;;;;;5063030;28;20261;-85
2021/04/13 04:03:34;;;;;;;7.15;6.55;;;1.70;99.90;;;;;;5062773;28;20218;-85
2021/04/13 04:06:02;;;;;;;8.05;7.32;;;1.70;99.90;;;;;;5063603;28;20188;-85
2021/04/13 04:08:33;;;;;;;7.45;6.57;;;1.80;99.90;;;;;;5063216;28;20205;-85
2021/04/13 04:10:59;;;;;;;9.10;6.65;;;1.80;99.90;;;;;;5062301;28;20218;-85
2021/04/13 04:13:32;;;;;;;5.50;4.90;;;1.90;99.90;;;;;;5062433;28;20214;-85
2021/04/13 04:16:19;;;;;;;5.95;5.45;;;1.90;99.90;;;;;;5062952;28;20192;-85
2021/04/13 04:18:49;;;;;;;7.13;6.50;;;1.80;99.90;;;;;;5061947;28;20207;-85
2021/04/13 04:21:28;;;;;;;8.68;7.18;;;1.80;99.90;;;;;;5062556;28;20685;-85
2021/04/13 04:23:56;;;;;;;8.23;7.32;;;1.70;99.90;;;;;;5062034;28;20639;-85
2021/04/13 04:26:32;;;;;;;10.30;8.27;;;1.60;99.90;;;;;;5061273;28;20206;-85
2021/04/13 04:29:12;;;;;;;8.38;7.60;;;1.50;99.90;;;;;;5061767;28;20643;-85
2021/04/13 04:31:41;;;;;;;7.65;7.05;;;1.40;99.90;;;;;;5062339;28;20226;-85
2021/04/13 04:34:45;;;;;;;7.60;6.90;;;1.40;99.90;;;;;;5062039;28;20206;-84
2021/04/13 04:37:27;;;;;;;13.35;7.28;;;1.30;99.90;;;;;;5061787;28;20299;-85
2021/04/13 04:40:13;;;;;;;6.72;6.13;;;1.30;99.90;;;;;;5061480;28;20299;-84
2021/04/13 04:42:54;;;;;;;7.90;7.20;;;1.20;99.90;;;;;;5060803;28;20238;-85
2021/04/13 04:45:47;;;;;;;8.30;7.53;;;1.30;99.90;;;;;;5060824;28;20667;-84
2021/04/13 04:48:30;;;;;;;8.82;7.15;;;1.30;99.90;;;;;;5058967;28;20704;-84
2021/04/13 04:50:59;;;;;;;6.82;6.22;;;1.30;99.90;;;;;;5061263;28;20643;-84
2021/04/13 04:53:28;;;;;;;8.82;7.30;;;1.30;99.90;;;;;;5062252;28;20218;-84
2021/04/13 04:55:55;;;;;;;7.65;6.75;;;1.30;99.90;;;;;;5061562;28;20203;-84
2021/04/13 04:58:22;;;;;;;10.70;7.82;;;1.30;99.90;;;;;;5061060;28;20231;-85
2021/04/13 05:00:50;;;;;;;8.50;7.60;;;1.30;99.90;;;;;;5060819;28;20246;-85
2021/04/13 05:03:18;;;;;;;12.07;7.35;;;1.30;99.90;;;;;;5060067;28;20299;-84
2021/04/13 05:05:45;;;;;;;8.88;7.78;;;1.30;99.90;;;;;;5061209;28;20199;-85
2021/04/13 05:08:12;;;;;;;8.55;7.25;;;1.30;99.90;;;;;;5061383;28;20212;-84
2021/04/13 05:10:38;;;;;;;8.73;7.80;;;1.30;99.90;;;;;;5060577;28;20213;-85
2021/04/13 05:13:05;;;;;;;8.43;7.00;;;1.30;99.90;;;;;;5061158;28;20206;-85
2021/04/13 05:15:31;;;;;;;9.30;7.25;;;1.30;99.90;;;;;;5060967;28;20239;-84
2021/04/13 05:17:58;;;;;;;9.40;8.13;;;1.20;99.90;;;;;;5061328;28;20220;-85
2021/04/13 05:20:24;;;;;;;9.55;8.52;;;1.30;99.90;;;;;;5061816;28;20222;-85
2021/04/13 05:22:51;;;;;;;8.10;6.95;;;1.20;99.90;;;;;;5062465;28;20225;-84
2021/04/13 05:25:18;;;;;;;8.60;7.80;;;1.30;99.90;;;;;;5062274;28;20626;-85
2021/04/13 05:27:45;;;;;;;8.13;7.35;;;1.30;99.90;;;;;;5061405;28;20232;-85
2021/04/13 05:30:13;;;;;;;13.18;9.15;;;1.30;99.90;;;;;;5060238;28;20198;-84
2021/04/13 05:32:39;;;;;;;9.32;8.27;;;1.40;99.90;;;;;;5060103;28;20230;-84
2021/04/13 05:35:06;;;;;;;10.63;7.47;;;1.40;99.90;;;;;;5060701;28;20214;-85
2021/04/13 05:37:33;;;;;;;10.45;8.13;;;1.40;99.90;;;;;;5060274;28;20263;-85
2021/04/13 05:40:03;;;;;;;12.23;8.98;;;1.40;99.90;;;;;;5060068;28;20226;-84
2021/04/13 05:42:32;;;;;;;9.48;7.68;;;1.40;99.90;;;;;;5060720;28;20233;-85
2021/04/13 05:45:00;;;;;;;9.60;8.60;;;1.50;99.90;;;;;;5060953;28;20221;-85
2021/04/13 05:47:29;;;;;;;9.18;8.25;;;1.50;99.90;;;;;;5061103;28;20629;-85
2021/04/13 05:49:55;;;;;;;8.48;7.65;;;1.60;99.90;;;;;;5061034;28;20206;-85
2021/04/13 05:52:22;;;;;;;8.32;7.45;;;1.60;99.90;;;;;;5060378;28;20322;-84
2021/04/13 05:54:48;;;;;;;7.15;6.55;;;1.70;99.90;;;;;;5060519;28;20210;-85
2021/04/13 05:57:20;;;;;;;8.07;7.20;;;1.90;99.90;;;;;;5061139;28;20213;-85
2021/04/13 05:59:51;;;;;;;10.40;9.40;;;1.90;99.90;;;;;;5060239;28;20207;-85
2021/04/13 06:02:17;;;;;;;7.53;6.88;;;1.90;99.90;;;;;;5060471;28;20288;-84
2021/04/13 06:04:43;;;;;;;8.63;7.75;;;1.90;99.90;;;;;;5060539;28;20697;-85
2021/04/13 06:07:10;;;;;;;10.50;9.48;;;1.90;99.90;;;;;;5060879;28;20605;-85
2021/04/13 06:09:36;;;;;;;9.82;8.10;;;2.00;99.90;;;;;;5061755;28;20208;-85
2021/04/13 06:12:03;;;;;;;8.10;7.30;;;2.20;99.90;;;;;;5063341;28;20642;-85
2021/04/13 06:14:30;;;;;;;10.43;9.15;;;2.30;99.90;;;;;;5059174;28;20876;-84
2021/04/13 06:16:56;;;;;;;9.45;8.68;;;2.40;99.90;;;;;;5058905;28;20218;-84
2021/04/13 06:19:22;;;;;;;9.82;8.70;;;2.50;99.90;;;;;;5059265;28;20212;-84
2021/04/13 06:21:50;;;;;;;10.85;8.50;;;2.80;99.90;;;;;;5058036;28;20759;-84
2021/04/13 06:24:16;;;;;;;9.60;8.50;;;3.00;99.90;;;;;;5059172;28;20622;-84
2021/04/13 06:26:43;;;;;;;9.43;8.40;;;3.10;99.90;;;;;;5059036;28;20213;-84
2021/04/13 06:29:09;;;;;;;10.73;8.95;;;3.30;99.90;;;;;;5057987;28;20213;-83
2021/04/13 06:31:36;;;;;;;8.90;7.47;;;3.50;99.90;;;;;;5058203;28;20291;-85
2021/04/13 06:34:03;;;;;;;11.85;10.05;;;3.50;99.90;;;;;;5059022;28;20216;-85
2021/04/13 06:36:29;;;;;;;10.20;9.23;;;3.50;99.90;;;;;;5059210;28;20220;-85
2021/04/13 06:38:59;;;;;;;10.73;9.63;;;3.60;99.90;;;;;;5059615;28;20205;-84
2021/04/13 06:41:43;;;;;;;10.35;9.32;;;3.70;99.90;;;;;;5058698;28;20234;-84
2021/04/13 06:44:27;;;;;;;12.80;9.65;;;3.80;99.90;;;;;;5059146;28;20238;-84
2021/04/13 06:47:01;;;;;;;11.00;9.90;;;3.80;99.90;;;;;;5059804;28;20597;-84
2021/04/13 06:50:04;;;;;;;11.02;8.80;;;3.80;99.90;;;;;;5059623;28;20194;-83
2021/04/13 06:52:44;;;;;;;11.68;10.50;;;3.60;99.90;;;;;;5062620;28;20267;-84
2021/04/13 06:55:21;;;;;;;12.60;9.52;;;3.80;99.90;;;;;;5062439;28;20201;-84
2021/04/13 06:58:10;;;;;;;11.90;10.80;;;3.90;99.90;;;;;;5061462;28;20609;-84
2021/04/13 07:00:55;;;;;;;12.55;11.23;;;4.20;99.90;;;;;;5061907;28;20755;-84
2021/04/13 07:03:30;;;;;;;13.85;11.80;;;4.50;99.90;;;;;;5058458;28;20190;-84
2021/04/13 07:06:10;;;;;;;10.32;9.43;;;4.70;99.90;;;;;;5061760;28;20612;-84
2021/04/13 07:08:38;;;;;;;11.40;10.20;;;4.90;99.90;;;;;;5061660;28;20210;-84
2021/04/13 07:11:12;;;;;;;12.10;10.60;;;5.00;99.90;;;;;;5062953;28;20218;-83
2021/04/13 07:13:49;;;;;;;11.05;10.15;;;5.10;99.90;;;;;;5064363;28;20190;-83
2021/04/13 07:16:22;;;;;;;11.45;10.50;;;5.20;99.90;;;;;;5064158;28;20236;-83
2021/04/13 07:19:00;;;;;;;11.90;10.70;;;5.30;99.90;;;;;;5062647;28;20197;-83
2021/04/13 07:21:33;;;;;;;11.73;10.23;;;5.10;99.50;;;;;;5062231;28;20307;-83
2021/04/13 07:24:11;;;;;;;12.60;11.38;;;5.20;99.50;;;;;;5061222;28;20210;-83
2021/04/13 07:26:41;;;;;;;11.25;10.00;;;5.20;99.40;;;;;;5061037;28;20725;-84
2021/04/13 07:29:12;;;;;;;12.48;9.70;;;5.10;99.40;;;;;;5063150;28;20206;-83
2021/04/13 07:31:44;;;;;;;11.90;10.70;;;5.10;99.20;;;;;;5065737;28;20280;-85
2021/04/13 07:34:12;;;;;;;11.40;10.30;;;5.20;99.40;;;;;;5059098;28;20207;-84
2021/04/13 07:36:43;;;;;;;9.68;8.20;;;5.30;99.10;;;;;;5058067;28;20213;-84
2021/04/13 07:39:11;;;;;;;11.13;10.00;;;5.40;99.00;;;;;;5066552;28;20283;-84
2021/04/13 07:41:43;;;;;;;11.80;10.18;;;5.40;98.80;;;;;;5076045;28;20225;-83
2021/04/13 07:44:15;;;;;;;13.60;10.02;;;5.40;99.10;;;;;;5075515;28;20186;-85
2021/04/13 07:46:58;;;;;;;12.23;9.90;;;5.50;99.60;;;;;;5075267;28;20198;-84
2021/04/13 07:49:32;;;;;;;10.02;9.02;;;5.70;99.40;;;;;;5072953;28;20190;-84
2021/04/13 07:52:09;;;;;;;12.80;11.57;;;5.80;98.80;;;;;;5074558;28;20232;-84
2021/04/13 07:54:44;;;;;;;10.32;9.43;;;5.90;98.40;;;;;;5076929;28;20197;-84
2021/04/13 07:57:19;;;;;;;12.13;10.93;;;6.10;98.90;;;;;;5077982;28;20193;-82
2021/04/13 07:59:55;;;;;;;12.82;11.40;;;6.20;98.20;;;;;;5077638;28;20208;-84
2021/04/13 08:02:23;;;;;;;12.25;10.50;;;6.30;98.40;;;;;;5077665;28;20217;-84
2021/04/13 08:04:51;;;;;;;12.07;10.73;;;6.40;98.20;;;;;;5077548;28;20190;-85
2021/04/13 08:07:22;;;;;;;11.98;10.80;;;6.30;97.40;;;;;;5078526;28;20209;-83
2021/04/13 08:10:04;;;;;;;11.30;10.30;;;6.30;98.30;;;;;;5077692;28;20190;-84
2021/04/13 08:12:31;;;;;;;11.05;10.02;;;6.40;98.10;;;;;;5077564;28;20229;-82
2021/04/13 08:15:14;;;;;;;10.52;9.43;;;6.30;98.00;;;;;;5077143;28;20216;-85
2021/04/13 08:17:58;;;;;;;11.23;10.13;;;6.40;98.00;;;;;;5077737;28;20178;-83
2021/04/13 08:20:28;;;;;;;12.43;11.00;;;6.00;98.80;;;;;;5069289;28;20236;-84
2021/04/13 08:22:58;;;;;;;13.05;11.82;;;5.90;99.90;;;;;;5056211;28;20225;-84
2021/04/13 08:25:33;;;;;;;17.15;12.13;;;5.40;99.90;;;;;;5061299;28;20575;-83
2021/04/13 08:28:12;;;;;;;13.70;12.30;;;5.20;99.90;;;;;;5060943;28;20211;-85
2021/04/13 08:32:49;;;;;;;15.25;13.85;;;5.00;99.90;;;;;;5060274;28;20185;-84
2021/04/13 08:33:59;;;;;;;15.50;13.80;;;4.60;99.90;;;;;;5060287;28;20228;-84
2021/04/13 08:36:32;;;;;;;10.63;9.57;;;4.40;99.90;;;;;;5059724;28;20636;-83
2021/04/13 08:39:04;;;;;;;11.05;10.05;;;4.30;99.90;;;;;;5059206;28;20663;-84
2021/04/13 08:41:44;;;;;;;10.65;9.05;;;4.20;99.90;;;;;;5057853;28;20737;-83
2021/04/13 08:44:34;;;;;;;8.30;7.53;;;4.10;99.90;;;;;;5058556;28;20207;-83
2021/04/13 08:47:03;;;;;;;7.75;6.45;;;3.90;99.90;;;;;;5060019;28;20229;-84
2021/04/13 08:49:46;;;;;;;10.30;8.00;;;3.80;99.90;;;;;;5058823;28;20240;-85
2021/04/13 08:52:19;;;;;;;12.82;11.52;;;3.70;99.90;;;;;;5059985;28;20238;-83
2021/04/13 08:54:48;;;;;;;14.63;13.05;;;3.50;99.90;;;;;;5058795;28;20658;-82
2021/04/13 08:57:33;;;;;;;11.30;10.15;;;3.50;99.90;;;;;;5058967;28;20216;-82
2021/04/13 09:00:01;;;;;;;11.63;10.43;;;3.50;99.90;;;;;;5059227;28;20201;-81
2021/04/13 09:02:29;;;;;;;16.15;11.80;;;3.50;99.90;;;;;;5059692;28;20229;-82
2021/04/13 09:05:09;;;;;;;13.90;12.50;;;3.60;99.90;;;;;;5065568;28;20214;-81
2021/04/13 09:07:54;;;;;;;13.95;11.10;;;3.60;99.90;;;;;;5066138;28;20212;-85
2021/04/13 09:10:31;;;;;;;14.00;12.65;;;3.70;99.90;;;;;;5064172;28;20631;-82
2021/04/13 09:13:26;;;;;;;11.55;10.35;;;3.90;99.90;;;;;;5065050;28;20239;-83
2021/04/13 09:15:58;;;;;;;14.45;12.68;;;4.00;99.90;;;;;;5067854;28;20209;-81
2021/04/13 09:18:33;;;;;;;15.68;13.48;;;4.10;99.90;;;;;;5066637;28;20239;-82
2021/04/13 09:21:06;;;;;;;12.88;11.57;;;4.20;99.90;;;;;;5064158;28;20721;-82
2021/04/13 09:23:41;;;;;;;12.57;11.38;;;4.20;99.90;;;;;;5064917;28;20205;-83
2021/04/13 09:26:19;;;;;;;13.00;11.57;;;4.30;99.90;;;;;;5063313;28;20213;-83
2021/04/13 09:28:51;;;;;;;11.98;9.90;;;4.60;99.90;;;;;;5062433;28;20201;-82
2021/04/13 09:31:22;;;;;;;11.05;9.85;;;4.90;99.90;;;;;;5061927;28;20232;-84
2021/04/13 09:33:49;;;;;;;11.80;10.68;;;5.20;99.90;;;;;;5064194;28;20205;-82
2021/04/13 09:36:33;;;;;;;12.65;11.18;;;5.40;99.90;;;;;;5062440;28;20807;-84
2021/04/13 09:39:31;;;;;;;12.88;11.55;;;5.70;99.90;;;;;;5062491;28;20575;-83
2021/04/13 09:42:14;;;;;;;14.23;10.60;;;5.80;99.90;;;;;;5060710;28;20229;-84
2021/04/13 09:44:53;;;;;;;13.68;10.38;;;5.90;99.20;;;;;;5062654;28;20210;-83
2021/04/13 09:47:32;;;;;;;11.02;9.93;;;6.00;98.60;;;;;;5061395;28;20206;-84
2021/04/13 09:50:12;;;;;;;11.55;9.15;;;6.00;97.40;;;;;;5061022;28;20709;-84
2021/04/13 09:53:08;;;;;;;10.43;9.43;;;6.10;96.80;;;;;;5062775;28;20587;-83
2021/04/13 09:55:46;;;;;;;10.05;9.15;;;6.10;96.40;;;;;;5064053;28;20200;-86
2021/04/13 09:58:34;;;;;;;9.15;8.35;;;6.40;96.50;;;;;;5061902;28;20209;-83
2021/04/13 10:01:15;;;;;;;8.13;7.38;;;6.60;95.00;;;;;;5063188;28;20236;-83
2021/04/13 10:04:27;;;;;;;9.82;8.82;;;6.70;93.20;;;;;;5063414;28;20202;-83
2021/04/13 10:07:24;;;;;;;11.27;10.00;;;6.90;92.50;;;;;;5061662;28;20251;-84
2021/04/13 10:09:51;;;;;;;9.23;8.40;;;7.20;92.80;;;;;;5060574;28;20205;-84
2021/04/13 10:12:56;;;;;;;10.02;9.02;;;7.40;92.30;;;;;;5061571;28;20300;-84
2021/04/13 10:15:54;;;;;;;13.32;8.48;;;7.40;89.60;;;;;;5059988;28;20279;-84
2021/04/13 10:18:57;;;;;;;9.60;8.80;;;7.40;90.30;;;;;;5063294;28;20206;-84
2021/04/13 10:21:44;;;;;;;9.88;8.98;;;7.50;90.70;;;;;;5063673;28;20231;-83
2021/04/13 10:24:40;;;;;;;9.55;7.50;;;7.60;90.40;;;;;;5060345;28;20190;-84
2021/04/13 10:27:42;;;;;;;8.60;7.85;;;8.10;91.30;;;;;;5066104;28;20215;-84
2021/04/13 10:30:24;;;;;;;8.50;7.70;;;8.40;87.50;;;;;;5062811;28;20214;-84
2021/04/13 10:33:37;;;;;;;10.57;7.35;;;8.80;85.80;;;;;;5062344;28;20226;-82
2021/04/13 10:37:10;;;;;;;7.90;7.20;;;9.00;81.70;;;;;;5063305;28;20324;-84
2021/04/13 10:40:03;;;;;;;8.43;7.72;;;8.80;82.50;;;;;;4982103;28;20604;-85
2021/04/13 10:43:01;;;;;;;7.78;7.07;;;8.60;84.10;;;;;;4981779;28;20246;-84
2021/04/13 10:45:54;;;;;;;8.95;7.43;;;8.60;83.20;;;;;;5049724;28;20211;-83
2021/04/13 10:48:46;;;;;;;8.82;8.05;;;8.50;81.40;;;;;;5062904;28;20191;-83
2021/04/13 10:51:34;;;;;;;8.50;7.68;;;8.30;80.00;;;;;;5062763;28;20236;-83
2021/04/13 10:54:45;;;;;;;7.85;7.15;;;8.10;81.30;;;;;;5063722;28;20199;-84
2021/04/13 10:58:03;;;;;;;;;;;;;;;;;;;;;
2021/04/13 11:00:35;;;;;;;7.85;7.00;;;8.20;81.20;;;;;;5036902;28;20285;-85
2021/04/13 11:03:50;;;;;;;8.45;7.70;;;8.30;81.80;;;;;;5062741;28;20276;-84
2021/04/13 11:06:49;;;;;;;8.00;7.20;;;8.20;82.20;;;;;;5062634;28;20193;-84
2021/04/13 11:09:37;;;;;;;7.45;6.95;;;8.70;82.40;;;;;;5065296;28;20218;-84
2021/04/13 11:12:42;;;;;;;6.20;5.07;;;9.40;78.90;;;;;;5064108;28;20235;-84
2021/04/13 11:15:44;;;;;;;5.20;4.77;;;10.30;70.40;;;;;;5066281;28;20529;-85
2021/04/13 11:18:39;;;;;;;7.20;5.87;;;10.80;65.60;;;;;;5058664;28;20479;-86
2021/04/13 11:24:39;;;;;;;6.67;6.07;;;11.90;66.00;;;;;;5044265;28;20929;-85
2021/04/13 11:27:34;;;;;;;5.00;4.50;;;12.70;64.40;;;;;;5063268;28;20451;-87
2021/04/13 11:30:36;;;;;;;5.50;5.10;;;13.50;59.10;;;;;;5061856;28;20454;-85
2021/04/13 11:33:29;;;;;;;5.73;5.30;;;14.20;57.20;;;;;;5057610;28;20444;-85
2021/04/13 11:36:08;;;;;;;5.70;5.17;;;15.20;55.50;;;;;;5061973;28;20993;-85
2021/04/13 11:38:53;;;;;;;6.13;5.57;;;16.40;53.10;;;;;;5067894;28;20827;-84
2021/04/13 11:41:39;;;;;;;6.17;5.77;;;17.00;50.30;;;;;;5069578;28;20494;-85
2021/04/13 11:44:10;;;;;;;6.20;5.80;;;16.60;45.40;;;;;;5068815;28;20450;-84
2021/04/13 11:46:49;;;;;;;6.97;6.37;;;15.60;45.70;;;;;;5063952;28;20971;-85
2021/04/13 11:49:20;;;;;;;6.47;5.90;;;15.90;45.60;;;;;;5059907;28;20455;-84
2021/04/13 11:51:59;;;;;;;5.17;4.77;;;15.30;43.50;;;;;;5062073;28;20477;-86
2021/04/13 11:54:43;;;;;;;6.13;5.73;;;14.80;42.50;;;;;;5055672;28;20525;-86
2021/04/13 11:57:15;;;;;;;4.73;4.33;;;14.50;43.10;;;;;;5060362;28;20442;-86
2021/04/13 11:59:41;;;;;;;4.40;4.10;;;14.20;42.80;;;;;;5066481;28;20444;-86
2021/04/13 12:02:24;;;;;;;5.00;4.57;;;14.50;41.40;;;;;;5065912;28;20496;-84
2021/04/13 12:04:53;;;;;;;5.70;5.20;;;15.30;40.50;;;;;;5071391;28;20454;-86
2021/04/13 12:08:03;;;;;;;5.97;5.47;;;16.20;41.50;;;;;;5063856;28;20524;-86
2021/04/13 12:10:54;;;;;;;6.17;5.70;;;16.50;42.40;;;;;;5054993;28;20460;-86
2021/04/13 12:13:42;;;;;;;6.10;5.50;;;16.70;41.00;;;;;;5058346;28;20450;-84
2021/04/13 12:16:11;;;;;;;6.17;5.73;;;16.40;39.70;;;;;;5066976;28;20440;-85
2021/04/13 12:18:50;;;;;;;6.47;6.00;;;15.60;41.70;;;;;;5067696;28;20821;-85
2021/04/13 12:21:58;;;;;;;6.23;5.73;;;14.70;44.30;;;;;;5067586;28;20539;-85
2021/04/13 12:24:47;;;;;;;6.53;6.03;;;13.80;46.60;;;;;;5063838;28;20861;-84
2021/04/13 12:27:47;;;;;;;6.73;5.70;;;12.20;47.40;;;;;;5065094;28;20520;-85
2021/04/13 12:30:50;;;;;;;9.17;5.97;;;10.80;50.20;;;;;;5063222;28;20444;-84
2021/04/13 12:33:59;;;;;;;6.30;5.80;;;10.50;53.20;;;;;;5061994;28;20449;-85
2021/04/13 12:36:43;;;;;;;6.07;5.50;;;10.20;53.10;;;;;;5057719;28;20442;-85
2021/04/13 12:39:10;;;;;;;5.50;5.00;;;10.40;54.90;;;;;;5061504;28;20477;-85
2021/04/13 12:41:56;;;;;;;4.13;3.77;;;10.80;53.10;;;;;;5060078;28;20495;-86
2021/04/13 12:44:26;;;;;;;4.80;4.40;;;11.40;51.00;;;;;;5055614;28;20416;-86
2021/04/13 12:46:53;;;;;;;5.30;4.90;;;12.40;49.40;;;;;;5057182;28;20448;-85
2021/04/13 12:49:27;;;;;;;5.20;4.70;;;13.20;46.50;;;;;;5073972;28;20431;-86
2021/04/13 12:51:56;;;;;;;6.27;5.77;;;14.10;46.30;;;;;;5083939;28;20468;-85
2021/04/13 12:54:30;;;;;;;5.43;5.03;;;14.70;44.30;;;;;;5075840;28;20433;-86
2021/04/13 12:57:01;;;;;;;5.57;5.07;;;14.50;42.50;;;;;;5061669;28;20495;-85
2021/04/13 12:59:29;;;;;;;4.37;4.07;;;13.60;43.40;;;;;;5060951;28;20438;-85
2021/04/13 13:01:56;;;;;;;5.80;5.33;;;13.40;45.30;;;;;;5057432;28;20558;-85
2021/04/13 13:04:36;;;;;;;5.43;4.50;;;14.20;45.80;;;;;;5057272;28;20941;-87
2021/04/13 13:07:05;;;;;;;4.60;4.30;;;14.80;45.70;;;;;;5057211;28;20792;-85
2021/04/13 13:09:34;;;;;;;5.00;4.53;;;15.00;42.60;;;;;;5057626;28;20440;-85
2021/04/13 13:12:04;;;;;;;3.37;3.00;;;15.00;41.10;;;;;;5041171;28;20472;-85
2021/04/13 13:14:32;;;;;;;4.33;4.03;;;14.90;40.00;;;;;;5059923;28;20453;-85
2021/04/13 13:17:00;;;;;;;4.53;3.57;;;14.70;40.30;;;;;;5061227;28;20453;-85
2021/04/13 13:19:34;;;;;;;3.73;3.43;;;14.70;41.70;;;;;;5059488;28;20449;-85
2021/04/13 13:22:04;;;;;;;3.43;3.23;;;14.60;40.00;;;;;;5056417;28;20492;-84
2021/04/13 13:24:32;;;;;;;3.87;3.57;;;14.30;40.20;;;;;;5054334;28;20456;-85
2021/04/13 13:27:12;;;;;;;5.03;4.60;;;14.00;40.70;;;;;;5058066;28;20532;-85
2021/04/13 13:29:39;;;;;;;4.67;4.37;;;13.40;42.30;;;;;;5056716;28;20444;-85
2021/04/13 13:32:06;;;;;;;6.27;5.77;;;12.60;44.90;;;;;;5055855;28;21024;-86
2021/04/13 13:34:33;;;;;;;5.67;4.53;;;11.80;48.20;;;;;;5055485;28;20458;-85
2021/04/13 13:37:01;;;;;;;5.40;5.00;;;11.10;50.40;;;;;;5056777;28;20467;-86
2021/04/13 13:47:05;;;;;;;4.53;4.13;;;9.70;55.60;;;;;;4980289;28;20508;-85
2021/04/13 15:57:24;;;;;;;5.63;4.80;;;13.20;42.90;;;;;;4826793;29;20476;-87
2021/04/13 16:03:44;;;;;;;4.73;4.33;;;12.10;46.40;;;;;;4874773;29;21038;-87
2021/04/13 16:06:55;;;;;;;;;;;;;;;;;;;;;
2021/04/13 16:12:50;;;;;;;4.87;4.53;;;10.70;46.50;;;;;;5000793;28;20487;-84
2021/04/13 16:15:42;;;;;;;5.30;4.50;;;10.10;46.80;;;;;;5056434;28;20492;-85
2021/04/13 16:22:27;;;;;;;;;;;;;;;;;;;;;
2021/04/13 16:25:16;;;;;;;4.00;3.70;;;8.50;50.60;;;;;;5058088;28;20213;-88
2021/04/13 16:28:08;;;;;;;3.70;3.40;;;8.30;51.90;;;;;;5051213;28;20559;-85
2021/04/13 16:30:47;;;;;;;4.60;4.13;;;8.10;50.90;;;;;;5062612;28;20213;-87
2021/04/13 16:33:18;;;;;;;4.35;4.05;;;7.90;50.70;;;;;;5057802;28;20687;-87
2021/04/13 16:58:19;;;;;;;3.97;3.57;;;8.50;49.60;;;;;;5056049;28;20230;-92
2021/04/13 18:53:10;;;;;;;2.45;2.13;;;7.50;47.10;;;;;;5020055;28;20230;-87
2021/04/13 18:59:07;;;;;;;2.78;2.58;;;7.30;48.20;;;;;;4969225;28;20635;-86
2021/04/13 19:01:53;;;;;;;3.45;3.15;;;7.30;48.60;;;;;;4943002;29;20235;-87
2021/04/13 19:05:01;;;;;;;;;;;;;;;;;;;;;
2021/04/13 19:07:32;;;;;;;3.90;3.53;;;7.20;49.60;;;;;;5036764;28;20209;-85
2021/04/13 19:10:48;;;;;;;;;;;;;;;;;;;;;
2021/04/13 19:13:15;;;;;;;3.45;3.15;;;7.10;51.10;;;;;;5071735;28;20332;-86
2021/04/13 19:15:50;;;;;;;5.00;3.60;;;7.10;51.10;;;;;;5075741;28;20221;-87
2021/04/13 19:18:42;;;;;;;5.30;4.53;;;7.00;51.90;;;;;;5082295;28;20216;-87
2021/04/13 19:21:58;;;;;;;3.10;2.90;;;6.80;51.30;;;;;;5080674;28;20228;-87
2021/04/13 19:24:54;;;;;;;3.80;3.53;;;6.80;51.90;;;;;;5064967;28;20213;-87
2021/04/13 19:27:25;;;;;;;3.53;3.22;;;6.70;52.80;;;;;;5081775;28;20220;-86
2021/04/13 19:30:07;;;;;;;3.92;3.08;;;6.70;53.10;;;;;;5081184;28;20240;-87
2021/04/13 19:32:41;;;;;;;5.43;4.22;;;6.60;53.50;;;;;;5079826;28;20307;-86
2021/04/13 19:35:16;;;;;;;3.00;2.80;;;6.60;53.70;;;;;;5080587;28;20200;-86
2021/04/13 19:37:51;;;;;;;3.53;3.22;;;6.50;54.30;;;;;;5080931;28;20211;-87
2021/04/13 19:40:39;;;;;;;3.70;3.38;;;6.40;55.30;;;;;;5081798;28;20224;-85
2021/04/13 19:43:15;;;;;;;3.35;3.08;;;6.20;55.40;;;;;;5079570;28;20598;-87
2021/04/13 19:46:17;;;;;;;3.97;3.60;;;6.10;56.00;;;;;;5081463;28;20222;-85
2021/04/13 19:49:15;;;;;;;4.72;4.25;;;6.00;56.40;;;;;;5080538;28;20181;-86
2021/04/13 19:51:54;;;;;;;4.20;3.90;;;6.00;57.10;;;;;;5082487;28;20228;-86
2021/04/13 19:55:09;;;;;;;4.93;4.53;;;5.80;56.80;;;;;;5082236;28;20193;-86
2021/04/13 19:57:43;;;;;;;5.30;4.80;;;5.60;56.70;;;;;;5066833;28;20639;-86
2021/04/13 20:03:26;;;;;;;3.97;3.60;;;5.40;56.90;;;;;;5040945;28;20226;-86
2021/04/13 20:06:20;;;;;;;;;;;;;;;;;;;;;
2021/04/13 20:12:23;;;;;;;5.43;4.93;;;5.20;58.10;;;;;;5028483;28;20809;-86
2021/04/13 20:14:58;;;;;;;5.95;4.35;;;5.10;58.90;;;;;;5082970;28;20302;-85
2021/04/13 20:17:31;;;;;;;7.32;6.60;;;4.90;59.30;;;;;;5082626;28;20208;-85
2021/04/13 20:23:21;;;;;;;6.45;5.07;;;4.70;60.90;;;;;;5066235;28;20852;-86
2021/04/13 20:26:02;;;;;;;7.75;4.85;;;4.70;61.20;;;;;;5082569;28;20189;-86
2021/04/13 20:28:37;;;;;;;7.18;5.03;;;4.70;61.80;;;;;;5081325;28;20611;-86
2021/04/13 20:34:59;;;;;;;4.65;4.35;;;4.70;62.10;;;;;;4927044;29;20214;-85
2021/04/13 20:44:31;;;;;;;4.95;4.18;;;4.60;65.10;;;;;;4823284;29;20734;-87
2021/04/13 20:56:48;;;;;;;6.53;5.00;;;4.50;67.70;;;;;;4983907;28;20287;-87
2021/04/13 21:00:02;;;;;;;;;;;;;;;;;;;;;